createdAt,value
2018-04-08T00:01:10.717Z,17.57
2018-04-08T00:03:38.209Z,17.00
2018-04-08T00:06:06.614Z,17.97
2018-04-08T00:12:04.234Z,17.23
2018-04-08T00:14:31.751Z,16.37
2018-04-08T00:16:59.252Z,16.83
2018-04-08T00:19:26.741Z,15.87
2018-04-08T00:21:54.236Z,16.47
2018-04-08T00:24:21.735Z,16.80
2018-04-08T00:26:49.239Z,17.30
2018-04-08T00:29:16.719Z,16.20
2018-04-08T00:31:44.221Z,15.30
2018-04-08T00:34:11.775Z,16.97
2018-04-08T00:36:39.269Z,16.30
2018-04-08T00:39:06.776Z,16.13
2018-04-08T00:41:34.273Z,15.47
2018-04-08T00:44:01.805Z,16.70
2018-04-08T00:46:29.306Z,16.93
2018-04-08T00:48:56.825Z,15.43
2018-04-08T00:51:24.776Z,16.83
2018-04-08T00:54:06.774Z,16.33
2018-04-08T00:56:34.296Z,17.33
2018-04-08T00:59:01.809Z,16.77
2018-04-08T01:01:29.304Z,16.83
2018-04-08T01:03:56.814Z,18.20
2018-04-08T01:06:24.312Z,16.63
2018-04-08T01:08:51.835Z,16.80
2018-04-08T01:11:19.332Z,17.17
2018-04-08T01:13:46.833Z,16.27
2018-04-08T01:16:14.314Z,16.43
2018-04-08T01:18:41.835Z,15.77
2018-04-08T01:21:09.335Z,17.73
2018-04-08T01:23:36.809Z,14.77
2018-04-08T01:26:04.298Z,15.97
2018-04-08T01:28:31.820Z,15.67
2018-04-08T01:30:59.340Z,16.50
2018-04-08T01:33:26.837Z,16.93
2018-04-08T01:35:54.314Z,17.70
2018-04-08T01:38:21.835Z,17.73
2018-04-08T01:40:49.334Z,15.77
2018-04-08T01:43:16.828Z,16.40
2018-04-08T01:45:44.319Z,17.40
2018-04-08T01:48:11.841Z,17.13
2018-04-08T01:50:39.327Z,17.83
2018-04-08T01:53:06.832Z,17.47
2018-04-08T01:55:34.349Z,18.07
2018-04-08T01:58:01.852Z,17.93
2018-04-08T02:00:29.360Z,18.67
2018-04-08T02:02:56.854Z,18.47
2018-04-08T02:05:24.340Z,18.63
2018-04-08T02:07:51.885Z,17.93
2018-04-08T02:10:19.422Z,17.70
2018-04-08T02:12:46.928Z,17.20
2018-04-08T02:15:14.432Z,17.40
2018-04-08T02:17:41.912Z,16.77
2018-04-08T02:20:09.446Z,17.00
2018-04-08T02:22:36.937Z,15.50
2018-04-08T02:25:04.432Z,16.57
2018-04-08T02:27:31.912Z,16.57
2018-04-08T02:29:59.456Z,16.10
2018-04-08T02:32:26.957Z,16.10
2018-04-08T02:34:54.472Z,15.90
2018-04-08T02:37:21.988Z,16.53
2018-04-08T02:39:49.491Z,15.40
2018-04-08T02:42:17.016Z,16.33
2018-04-08T02:44:44.502Z,16.20
2018-04-08T02:47:11.996Z,16.47
2018-04-08T02:49:39.494Z,16.10
2018-04-08T02:52:06.967Z,15.63
2018-04-08T02:54:34.473Z,15.57
2018-04-08T02:57:01.960Z,14.43
2018-04-08T02:59:29.437Z,14.90
2018-04-08T03:01:56.934Z,15.77
2018-04-08T03:04:24.407Z,15.10
2018-04-08T03:06:51.896Z,15.20
2018-04-08T03:09:19.404Z,14.50
2018-04-08T03:11:46.927Z,15.53
2018-04-08T03:14:14.405Z,13.87
2018-04-08T03:16:41.900Z,15.10
2018-04-08T03:19:09.400Z,14.53
2018-04-08T03:21:36.881Z,15.67
2018-04-08T03:24:04.374Z,14.40
2018-04-08T03:26:31.890Z,14.70
2018-04-08T03:28:59.387Z,14.93
2018-04-08T03:31:26.898Z,14.23
2018-04-08T03:33:54.417Z,14.33
2018-04-08T03:36:21.907Z,15.43
2018-04-08T03:38:49.424Z,13.87
2018-04-08T03:41:16.902Z,13.67
2018-04-08T03:43:44.393Z,13.80
2018-04-08T03:46:11.935Z,13.63
2018-04-08T03:48:39.407Z,12.93
2018-04-08T03:51:06.906Z,13.03
2018-04-08T03:53:34.425Z,13.53
2018-04-08T03:56:01.924Z,13.63
2018-04-08T03:58:29.406Z,14.20
2018-04-08T04:00:56.922Z,12.47
2018-04-08T04:03:24.461Z,14.93
2018-04-08T04:05:51.950Z,15.83
2018-04-08T04:08:19.468Z,16.03
2018-04-08T04:10:46.971Z,15.27
2018-04-08T04:13:14.449Z,14.27
2018-04-08T04:15:41.944Z,14.17
2018-04-08T04:18:21.176Z,13.00
2018-04-08T04:21:00.339Z,13.30
2018-04-08T04:23:39.597Z,13.30
2018-04-08T04:26:15.701Z,12.80
2018-04-08T04:28:43.178Z,12.97
2018-04-08T04:31:10.700Z,13.80
2018-04-08T04:33:38.831Z,13.10
2018-04-08T04:36:06.348Z,13.67
2018-04-08T04:38:33.859Z,13.73
2018-04-08T04:41:01.360Z,12.67
2018-04-08T04:43:28.864Z,13.97
2018-04-08T04:45:56.354Z,12.97
2018-04-08T04:48:23.831Z,13.67
2018-04-08T04:50:51.346Z,13.50
2018-04-08T04:53:18.864Z,13.40
2018-04-08T04:55:46.378Z,12.73
2018-04-08T04:58:13.859Z,14.43
2018-04-08T05:00:41.345Z,13.03
2018-04-08T05:03:08.852Z,13.13
2018-04-08T05:05:36.329Z,13.30
2018-04-08T05:08:03.836Z,13.33
2018-04-08T05:10:31.827Z,12.23
2018-04-08T05:12:59.735Z,12.80
2018-04-08T05:15:27.460Z,12.97
2018-04-08T05:17:54.970Z,12.20
2018-04-08T05:20:22.497Z,12.63
2018-04-08T05:22:50.054Z,13.10
2018-04-08T05:25:17.603Z,14.47
2018-04-08T05:27:45.121Z,12.97
2018-04-08T05:30:12.698Z,13.60
2018-04-08T05:32:40.197Z,12.80
2018-04-08T05:35:07.727Z,12.63
2018-04-08T05:37:35.339Z,13.20
2018-04-08T05:40:02.850Z,13.57
2018-04-08T05:42:30.334Z,12.97
2018-04-08T05:44:57.824Z,13.07
2018-04-08T05:47:25.338Z,13.00
2018-04-08T05:49:52.833Z,12.20
2018-04-08T05:52:27.938Z,13.03
2018-04-08T05:54:55.440Z,12.53
2018-04-08T05:57:22.949Z,12.37
2018-04-08T05:59:52.260Z,14.20
2018-04-08T06:02:24.397Z,12.63
2018-04-08T06:04:51.954Z,12.37
2018-04-08T06:07:19.542Z,12.00
2018-04-08T06:09:47.122Z,11.17
2018-04-08T06:12:14.664Z,10.87
2018-04-08T06:14:47.292Z,11.33
2018-04-08T06:17:17.085Z,11.33
2018-04-08T06:19:44.560Z,11.43
2018-04-08T06:22:12.065Z,11.50
2018-04-08T06:24:41.445Z,11.10
2018-04-08T06:27:08.938Z,12.10
2018-04-08T06:29:36.482Z,11.43
2018-04-08T06:32:03.980Z,12.73
2018-04-08T06:34:31.853Z,11.97
2018-04-08T06:36:59.425Z,11.20
2018-04-08T06:39:26.987Z,10.63
2018-04-08T06:41:54.505Z,11.03
2018-04-08T06:44:22.001Z,11.80
2018-04-08T06:46:49.510Z,11.53
2018-04-08T06:49:17.095Z,12.30
2018-04-08T06:51:46.317Z,11.90
2018-04-08T06:54:13.815Z,12.43
2018-04-08T06:56:41.332Z,12.77
2018-04-08T06:59:10.835Z,12.43
2018-04-08T07:01:43.102Z,12.57
2018-04-08T07:04:10.643Z,11.97
2018-04-08T07:06:38.209Z,13.57
2018-04-08T07:09:05.746Z,13.20
2018-04-08T07:11:33.240Z,12.37
2018-04-08T07:14:00.721Z,13.23
2018-04-08T07:16:28.917Z,12.10
2018-04-08T07:18:56.444Z,11.77
2018-04-08T07:21:27.548Z,13.80
2018-04-08T07:23:55.051Z,12.73
2018-04-08T07:26:22.546Z,12.20
2018-04-08T07:28:50.103Z,12.07
2018-04-08T07:31:17.602Z,11.70
2018-04-08T07:33:45.099Z,12.43
2018-04-08T07:36:12.598Z,11.73
2018-04-08T07:38:40.071Z,11.83
2018-04-08T07:41:07.610Z,11.73
2018-04-08T07:43:35.124Z,11.37
2018-04-08T07:46:02.686Z,11.37
2018-04-08T07:48:30.230Z,9.80
2018-04-08T07:50:57.831Z,10.93
2018-04-08T07:53:25.381Z,11.60
2018-04-08T07:55:52.958Z,10.17
2018-04-08T07:58:20.499Z,9.87
2018-04-08T08:00:48.021Z,10.73
2018-04-08T08:03:15.527Z,10.93
2018-04-08T08:05:43.036Z,11.00
2018-04-08T08:08:10.571Z,11.20
2018-04-08T08:10:38.114Z,11.10
2018-04-08T08:13:05.650Z,9.97
2018-04-08T08:15:33.157Z,10.40
2018-04-08T08:18:00.658Z,10.27
2018-04-08T08:20:28.159Z,9.80
2018-04-08T08:22:55.737Z,10.87
2018-04-08T08:25:23.247Z,10.33
2018-04-08T08:27:50.751Z,9.97
2018-04-08T08:30:18.263Z,9.80
2018-04-08T08:32:45.813Z,10.40
2018-04-08T08:35:13.306Z,10.10
2018-04-08T08:37:40.916Z,11.53
2018-04-08T08:40:08.427Z,10.13
2018-04-08T08:42:35.949Z,11.43
2018-04-08T08:45:04.277Z,10.53
2018-04-08T08:47:31.803Z,10.90
2018-04-08T08:49:59.338Z,10.27
2018-04-08T08:52:26.842Z,12.00
2018-04-08T08:54:54.383Z,11.10
2018-04-08T08:57:21.885Z,11.63
2018-04-08T08:59:49.390Z,12.67
2018-04-08T09:02:16.888Z,11.03
2018-04-08T09:04:44.376Z,11.90
2018-04-08T09:07:11.878Z,12.47
2018-04-08T09:09:39.386Z,13.10
2018-04-08T09:12:06.905Z,12.23
2018-04-08T09:14:34.435Z,12.33
2018-04-08T09:17:01.931Z,12.73
2018-04-08T09:19:33.964Z,12.90
2018-04-08T09:22:03.408Z,12.23
2018-04-08T09:24:41.758Z,12.50
2018-04-08T09:27:09.248Z,12.80
2018-04-08T09:29:36.768Z,12.23
2018-04-08T09:32:04.235Z,12.53
2018-04-08T09:34:31.760Z,12.97
2018-04-08T09:36:59.271Z,11.30
2018-04-08T09:39:26.793Z,12.53
2018-04-08T09:41:54.327Z,12.70
2018-04-08T09:44:21.815Z,13.30
2018-04-08T09:46:49.434Z,13.90
2018-04-08T09:49:16.925Z,12.90
2018-04-08T09:51:44.421Z,13.67
2018-04-08T09:54:11.951Z,13.63
2018-04-08T09:56:39.434Z,13.23
2018-04-08T09:59:06.960Z,12.17
2018-04-08T10:04:37.442Z,11.87
2018-04-08T10:07:04.933Z,12.87
2018-04-08T10:09:32.491Z,12.03
2018-04-08T10:11:59.998Z,12.20
2018-04-08T10:14:27.486Z,13.70
2018-04-08T10:16:54.990Z,14.23
2018-04-08T10:19:22.505Z,12.40
2018-04-08T10:21:50.020Z,12.37
2018-04-08T10:24:17.527Z,13.30
2018-04-08T10:26:45.044Z,13.27
2018-04-08T10:29:12.597Z,13.57
2018-04-08T10:31:40.054Z,13.80
2018-04-08T10:34:07.551Z,14.13
2018-04-08T10:36:35.061Z,13.53
2018-04-08T10:39:02.546Z,12.60
2018-04-08T10:41:30.043Z,12.17
2018-04-08T10:43:57.551Z,13.37
2018-04-08T10:46:25.079Z,13.70
2018-04-08T10:48:52.574Z,15.10
2018-04-08T10:51:20.073Z,16.03
2018-04-08T10:53:48.075Z,14.50
2018-04-08T10:56:15.576Z,14.33
2018-04-08T10:58:43.254Z,13.53
2018-04-08T11:01:11.249Z,14.80
2018-04-08T11:03:38.788Z,15.13
2018-04-08T11:06:06.303Z,15.40
2018-04-08T11:08:33.819Z,15.90
2018-04-08T11:11:01.332Z,15.67
2018-04-08T11:13:28.817Z,13.03
2018-04-08T11:15:56.335Z,14.00
2018-04-08T11:18:23.846Z,15.10
2018-04-08T11:20:51.341Z,14.07
2018-04-08T11:23:18.817Z,15.13
2018-04-08T11:25:46.358Z,13.43
2018-04-08T11:28:13.990Z,14.60
2018-04-08T11:30:41.502Z,15.27
2018-04-08T11:33:08.988Z,13.93
2018-04-08T11:35:36.498Z,15.47
2018-04-08T11:38:03.997Z,15.40
2018-04-08T11:40:31.498Z,17.80
2018-04-08T11:42:59.001Z,16.13
2018-04-08T11:45:26.533Z,15.80
2018-04-08T11:47:54.035Z,16.20
2018-04-08T11:50:21.569Z,16.93
2018-04-08T11:52:49.050Z,15.93
2018-04-08T11:55:16.549Z,15.83
2018-04-08T11:57:44.052Z,17.10
2018-04-08T12:00:11.589Z,16.60
2018-04-08T12:02:39.102Z,19.33
2018-04-08T12:05:06.600Z,20.80
2018-04-08T12:07:34.078Z,19.43
2018-04-08T12:10:01.570Z,19.13
2018-04-08T12:12:29.078Z,19.77
2018-04-08T12:14:56.608Z,20.03
2018-04-08T12:17:24.063Z,18.60
2018-04-08T12:19:51.568Z,17.13
2018-04-08T12:22:19.080Z,16.97
2018-04-08T12:24:46.558Z,16.70
2018-04-08T12:27:14.967Z,17.30
2018-04-08T12:29:42.461Z,17.10
2018-04-08T12:32:09.990Z,18.33
2018-04-08T12:34:37.494Z,18.53
2018-04-08T12:37:05.014Z,17.97
2018-04-08T12:39:32.508Z,17.67
2018-04-08T12:42:00.156Z,19.30
2018-04-08T12:44:27.650Z,19.50
2018-04-08T12:46:55.153Z,19.90
2018-04-08T12:49:22.676Z,19.07
2018-04-08T12:51:50.251Z,19.40
2018-04-08T12:54:17.690Z,20.33
2018-04-08T12:56:45.177Z,20.70
2018-04-08T12:59:12.674Z,18.73
2018-04-08T13:01:40.441Z,19.07
2018-04-08T13:04:07.926Z,19.63
2018-04-08T13:06:35.429Z,18.80
2018-04-08T13:09:02.941Z,19.73
2018-04-08T13:11:30.448Z,21.00
2018-04-08T13:13:57.939Z,20.13
2018-04-08T13:16:25.449Z,20.10
2018-04-08T13:18:53.026Z,20.03
2018-04-08T13:21:20.512Z,20.07
2018-04-08T13:23:48.050Z,18.67
2018-04-08T13:26:15.548Z,18.27
2018-04-08T13:28:43.063Z,17.87
2018-04-08T13:31:10.729Z,18.33
2018-04-08T13:33:38.256Z,17.80
2018-04-08T13:36:05.761Z,17.87
2018-04-08T13:38:33.283Z,17.57
2018-04-08T13:41:00.783Z,17.50
2018-04-08T13:43:28.257Z,18.30
2018-04-08T13:45:55.850Z,17.13
2018-04-08T13:48:23.348Z,20.63
2018-04-08T13:50:50.860Z,17.70
2018-04-08T13:53:18.368Z,19.37
2018-04-08T13:55:45.882Z,17.27
2018-04-08T13:58:13.393Z,18.03
2018-04-08T14:00:40.884Z,18.83
2018-04-08T14:03:08.394Z,19.27
2018-04-08T14:05:35.920Z,19.80
2018-04-08T14:08:03.422Z,20.93
2018-04-08T14:10:30.930Z,19.37
2018-04-08T14:12:58.430Z,19.73
2018-04-08T14:15:25.925Z,19.30
2018-04-08T14:17:53.466Z,20.77
2018-04-08T14:20:20.959Z,20.00
2018-04-08T14:22:48.559Z,19.37
2018-04-08T14:25:16.311Z,19.40
2018-04-08T14:27:43.850Z,20.13
2018-04-08T14:30:11.354Z,20.00
2018-04-08T14:32:38.856Z,20.00
2018-04-08T14:35:06.364Z,20.97
2018-04-08T14:37:33.863Z,20.97
2018-04-08T14:40:01.372Z,21.17
2018-04-08T14:42:28.865Z,20.27
2018-04-08T14:44:56.436Z,21.33
2018-04-08T14:47:23.978Z,19.53
2018-04-08T14:49:51.536Z,20.40
2018-04-08T14:52:19.124Z,20.93
2018-04-08T14:54:46.636Z,20.20
2018-04-08T14:57:14.220Z,19.57
2018-04-08T14:59:41.714Z,19.87
2018-04-08T15:02:09.246Z,19.07
2018-04-08T15:04:36.766Z,20.37
2018-04-08T15:07:04.275Z,20.03
2018-04-08T15:09:31.806Z,19.03
2018-04-08T15:11:59.371Z,20.63
2018-04-08T15:14:26.861Z,20.17
2018-04-08T15:16:54.369Z,20.20
2018-04-08T15:19:21.852Z,19.33
2018-04-08T15:21:49.342Z,18.87
2018-04-08T15:24:16.854Z,18.57
2018-04-08T15:26:44.364Z,17.80
2018-04-08T15:29:11.904Z,18.57
2018-04-08T15:31:39.443Z,19.10
2018-04-08T15:34:07.024Z,19.57
2018-04-08T15:36:34.547Z,18.77
2018-04-08T15:39:02.123Z,18.23
2018-04-08T15:41:29.639Z,20.90
2018-04-08T15:43:57.130Z,18.43
2018-04-08T15:46:24.602Z,20.53
2018-04-08T15:48:52.119Z,18.73
2018-04-08T15:51:19.671Z,19.13
2018-04-08T15:53:47.462Z,19.77
2018-04-08T15:56:17.031Z,20.23
2018-04-08T15:58:46.392Z,19.87
2018-04-08T16:01:14.138Z,20.50
2018-04-08T16:03:42.793Z,20.40
2018-04-08T16:06:10.997Z,22.07
2018-04-08T16:08:40.925Z,23.30
2018-04-08T16:11:08.944Z,21.33
2018-04-08T16:13:36.464Z,21.00
2018-04-08T16:16:03.939Z,20.97
2018-04-08T16:18:31.429Z,21.60
2018-04-08T16:20:59.053Z,21.13
2018-04-08T16:23:26.552Z,23.17
2018-04-08T16:25:54.056Z,22.73
2018-04-08T16:28:21.654Z,21.40
2018-04-08T16:30:49.153Z,21.87
2018-04-08T16:33:16.696Z,20.83
2018-04-08T16:35:44.251Z,21.60
2018-04-08T16:38:11.744Z,21.47
2018-04-08T16:40:39.245Z,20.93
2018-04-08T16:43:06.749Z,22.40
2018-04-08T16:45:34.253Z,21.03
2018-04-08T16:48:01.779Z,20.37
2018-04-08T16:50:29.270Z,21.70
2018-04-08T16:52:56.844Z,22.93
2018-04-08T16:55:24.344Z,20.40
2018-04-08T16:57:51.856Z,20.40
2018-04-08T17:00:19.379Z,20.87
2018-04-08T17:02:46.884Z,20.17
2018-04-08T17:05:14.415Z,20.10
2018-04-08T17:07:41.906Z,20.17
2018-04-08T17:10:09.428Z,21.47
2018-04-08T17:12:36.913Z,19.37
2018-04-08T17:15:04.393Z,18.47
2018-04-08T17:17:31.909Z,19.50
2018-04-08T17:19:59.419Z,19.50
2018-04-08T17:22:26.959Z,18.50
2018-04-08T17:24:54.502Z,17.77
2018-04-08T17:27:22.052Z,17.50
2018-04-08T17:29:49.592Z,17.87
2018-04-08T17:32:17.129Z,16.90
2018-04-08T17:34:44.638Z,17.47
2018-04-08T17:37:12.156Z,18.47
2018-04-08T17:39:39.646Z,16.20
2018-04-08T17:42:07.146Z,16.27
2018-04-08T17:44:34.670Z,16.40
2018-04-08T17:47:02.179Z,17.23
2018-04-08T17:49:29.751Z,17.20
2018-04-08T17:51:57.267Z,17.27
2018-04-08T17:54:24.787Z,18.23
2018-04-08T17:56:52.268Z,19.80
2018-04-08T17:59:19.792Z,19.50
2018-04-08T18:01:47.351Z,21.90
2018-04-08T18:04:14.841Z,23.27
2018-04-08T18:06:42.323Z,24.30
2018-04-08T18:09:09.830Z,24.87
2018-04-08T18:11:37.321Z,25.70
2018-04-08T18:14:04.885Z,26.43
2018-04-08T18:16:32.414Z,25.10
2018-04-08T18:18:59.910Z,24.93
2018-04-08T18:21:27.644Z,27.77
2018-04-08T18:23:55.144Z,25.87
2018-04-08T18:26:22.651Z,25.23
2018-04-08T18:28:50.608Z,24.70
2018-04-08T18:31:18.106Z,27.57
2018-04-08T18:33:45.626Z,26.47
2018-04-08T18:36:13.143Z,25.70
2018-04-08T18:38:41.183Z,27.20
2018-04-08T18:41:08.775Z,25.60
2018-04-08T18:43:36.347Z,26.70
2018-04-08T18:46:03.856Z,26.47
2018-04-08T18:48:31.420Z,26.97
2018-04-08T18:50:58.942Z,27.03
2018-04-08T18:53:26.483Z,26.90
2018-04-08T18:55:53.996Z,28.20
2018-04-08T18:58:21.498Z,27.60
2018-04-08T19:00:49.018Z,28.13
2018-04-08T19:03:16.573Z,27.03
2018-04-08T19:05:44.093Z,26.60
2018-04-08T19:08:11.586Z,26.87
2018-04-08T19:10:39.339Z,27.87
2018-04-08T19:13:06.872Z,26.93
2018-04-08T19:15:34.509Z,27.40
2018-04-08T19:18:02.977Z,27.10
2018-04-08T19:20:31.115Z,26.43
2018-04-08T19:22:58.659Z,26.77
2018-04-08T19:25:26.295Z,25.90
2018-04-08T19:27:53.842Z,25.77
2018-04-08T19:30:22.071Z,26.30
2018-04-08T19:32:49.610Z,27.10
2018-04-08T19:35:17.104Z,25.13
2018-04-08T19:37:44.646Z,26.40
2018-04-08T19:40:12.215Z,25.33
2018-04-08T19:42:39.903Z,26.83
2018-04-08T19:45:07.576Z,25.67
2018-04-08T19:47:35.102Z,25.27
2018-04-08T19:50:02.616Z,25.20
2018-04-08T19:52:30.142Z,24.80
2018-04-08T19:54:57.622Z,25.53
2018-04-08T19:57:25.509Z,26.57
2018-04-08T19:59:53.146Z,25.07
2018-04-08T20:02:20.659Z,24.50
2018-04-08T20:04:48.291Z,25.40
2018-04-08T20:07:15.788Z,24.40
2018-04-08T20:09:43.289Z,24.27
2018-04-08T20:12:10.825Z,23.57
2018-04-08T20:14:38.377Z,24.73
2018-04-08T20:17:05.882Z,25.20
2018-04-08T20:19:33.891Z,25.13
2018-04-08T20:22:01.590Z,24.97
2018-04-08T20:24:29.889Z,25.47
2018-04-08T20:26:57.415Z,25.90
2018-04-08T20:29:24.930Z,25.40
2018-04-08T20:31:52.564Z,25.53
2018-04-08T20:34:20.291Z,27.33
2018-04-08T20:36:47.790Z,26.47
2018-04-08T20:39:15.293Z,26.97
2018-04-08T20:41:42.793Z,26.00
2018-04-08T20:44:10.309Z,27.10
2018-04-08T20:46:37.822Z,27.20
2018-04-08T20:49:05.387Z,27.77
2018-04-08T20:51:32.852Z,26.57
2018-04-08T20:54:00.373Z,27.53
2018-04-08T20:56:27.896Z,27.20
2018-04-08T20:58:55.436Z,27.40
2018-04-08T21:01:22.928Z,30.20
2018-04-08T21:03:50.441Z,29.17
2018-04-08T21:06:17.946Z,29.33
2018-04-08T21:08:45.458Z,28.63
2018-04-08T21:11:12.942Z,29.40
2018-04-08T21:13:40.940Z,29.73
2018-04-08T21:16:08.461Z,29.57
2018-04-08T21:18:35.984Z,28.37
2018-04-08T21:21:03.485Z,29.13
2018-04-08T21:23:31.050Z,28.63
2018-04-08T21:25:58.517Z,29.17
2018-04-08T21:28:26.022Z,28.00
2018-04-08T21:30:53.622Z,30.00
2018-04-08T21:33:21.123Z,29.17
2018-04-08T21:35:48.641Z,29.60
2018-04-08T21:38:16.160Z,29.37
2018-04-08T21:40:43.660Z,31.90
2018-04-08T21:43:11.179Z,29.03
2018-04-08T21:45:38.665Z,29.60
2018-04-08T21:48:06.157Z,29.87
2018-04-08T21:50:33.642Z,29.37
2018-04-08T21:53:01.211Z,29.80
2018-04-08T21:55:28.706Z,29.43
2018-04-08T21:57:56.236Z,29.53
2018-04-08T22:00:23.736Z,30.07
2018-04-08T22:02:51.218Z,30.53
2018-04-08T22:05:18.725Z,30.63
2018-04-08T22:07:46.265Z,30.70
2018-04-08T22:10:13.780Z,29.23
2018-04-08T22:12:41.282Z,29.00
2018-04-08T22:15:08.769Z,30.50
2018-04-08T22:17:36.262Z,28.67
2018-04-08T22:20:03.751Z,30.27
2018-04-08T22:22:31.251Z,29.87
2018-04-08T22:24:58.759Z,28.90
2018-04-08T22:27:26.260Z,30.03
2018-04-08T22:29:53.782Z,29.30
2018-04-08T22:32:21.300Z,29.73
2018-04-08T22:34:48.808Z,29.07
2018-04-08T22:37:16.297Z,28.67
2018-04-08T22:39:43.794Z,29.40
2018-04-08T22:42:11.284Z,29.93
2018-04-08T22:44:38.772Z,29.77
2018-04-08T22:47:06.280Z,30.53
2018-04-08T22:49:33.806Z,29.43
2018-04-08T22:52:01.327Z,29.73
2018-04-08T22:54:28.809Z,31.17
2018-04-08T22:56:56.325Z,29.63
2018-04-08T22:59:23.830Z,29.30
2018-04-08T23:01:51.329Z,28.73
2018-04-08T23:04:18.810Z,28.77
2018-04-08T23:06:46.324Z,28.67
2018-04-08T23:09:13.826Z,29.40
2018-04-08T23:11:41.354Z,30.50
2018-04-08T23:14:08.840Z,28.37
2018-04-08T23:16:36.371Z,28.80
2018-04-08T23:19:03.863Z,29.57
2018-04-08T23:21:31.334Z,29.53
2018-04-08T23:23:58.827Z,29.63
2018-04-08T23:26:26.346Z,30.30
2018-04-08T23:28:53.867Z,30.00
2018-04-08T23:31:21.354Z,31.27
2018-04-08T23:33:48.924Z,30.77
2018-04-08T23:36:16.787Z,30.73
2018-04-08T23:38:44.310Z,30.97
2018-04-08T23:41:11.796Z,31.03
2018-04-08T23:43:39.338Z,31.73
2018-04-08T23:46:06.822Z,32.87
2018-04-08T23:48:34.308Z,33.03
2018-04-08T23:51:01.829Z,31.97
2018-04-08T23:53:29.345Z,33.07
2018-04-08T23:55:56.830Z,33.57
2018-04-08T23:58:24.319Z,31.53
